createdAt,value
2018-01-02T00:07:02.800Z,55.2
2018-01-02T00:23:49.750Z,55.2
2018-01-02T00:40:36.391Z,55.2
2018-01-02T00:57:22.994Z,55.2
2018-01-02T01:14:09.599Z,55.2
2018-01-02T01:30:55.936Z,54.8
2018-01-02T01:47:42.350Z,54.8
2018-01-02T02:04:28.595Z,54.8
2018-01-02T02:21:14.928Z,54.8
2018-01-02T02:38:01.321Z,54.0
2018-01-02T02:54:47.597Z,54.0
2018-01-02T03:11:33.765Z,54.0
2018-01-02T03:28:20.576Z,54.0
2018-01-02T03:45:06.167Z,54.0
2018-01-02T04:01:52.302Z,54.0
2018-01-02T04:18:38.385Z,54.0
2018-01-02T04:35:24.414Z,54.0
2018-01-02T04:52:10.373Z,53.6
2018-01-02T05:08:56.319Z,53.6
2018-01-02T05:25:42.253Z,53.6
2018-01-02T05:42:28.293Z,53.6
2018-01-02T05:59:14.385Z,53.2
2018-01-02T06:16:00.418Z,53.2
2018-01-02T06:32:46.450Z,53.2
2018-01-02T06:49:32.613Z,53.2
2018-01-02T07:06:18.719Z,53.2
2018-01-02T07:23:05.076Z,52.8
2018-01-02T07:39:51.353Z,52.8
2018-01-02T07:56:37.934Z,52.8
2018-01-02T08:13:24.383Z,52.4
2018-01-02T08:30:10.572Z,52.4
2018-01-02T08:46:57.032Z,52.4
2018-01-02T09:03:43.566Z,52.4
2018-01-02T09:20:30.142Z,52.0
2018-01-02T09:37:16.954Z,52.8
2018-01-02T09:54:03.678Z,53.2
2018-01-02T10:10:50.462Z,53.2
2018-01-02T10:27:37.429Z,53.2
2018-01-02T10:44:24.293Z,53.2
2018-01-02T11:01:11.099Z,53.6
2018-01-02T11:17:58.001Z,53.2
2018-01-02T11:34:44.869Z,53.6
2018-01-02T11:51:31.775Z,53.6
2018-01-02T12:08:18.797Z,54.4
2018-01-02T12:25:05.548Z,54.4
2018-01-02T12:41:52.417Z,54.4
2018-01-02T12:58:39.360Z,54.8
2018-01-02T13:15:26.254Z,54.8
2018-01-02T13:32:13.187Z,54.8
2018-01-02T13:49:00.226Z,55.2
2018-01-02T14:22:34.274Z,55.2
2018-01-02T14:39:21.900Z,55.2
2018-01-02T14:56:08.574Z,55.2
2018-01-02T15:12:55.690Z,55.2
2018-01-02T15:29:42.858Z,55.2
2018-01-02T15:46:30.037Z,56.4
2018-01-02T16:03:18.184Z,56.8
2018-01-02T16:20:04.394Z,56.8
2018-01-02T16:36:51.539Z,56.8
2018-01-02T16:53:38.769Z,56.8
2018-01-02T17:10:25.926Z,56.8
2018-01-02T17:27:13.199Z,56.8
2018-01-02T17:44:00.395Z,56.4
2018-01-02T18:00:47.739Z,56.4
2018-01-02T18:17:35.106Z,56.4
2018-01-02T18:34:22.533Z,56.4
2018-01-02T18:51:09.439Z,56.4
2018-01-02T19:07:56.999Z,55.6
2018-01-02T19:24:44.095Z,55.6
2018-01-02T19:41:34.168Z,55.6
2018-01-02T19:58:19.023Z,55.2
2018-01-02T20:15:09.280Z,55.2
2018-01-02T20:31:54.929Z,55.2
2018-01-02T20:48:41.036Z,55.2
2018-01-02T21:05:30.157Z,55.2
2018-01-02T21:22:14.461Z,55.2
2018-01-02T21:39:04.958Z,55.2
2018-01-02T21:55:50.513Z,55.2
2018-01-02T22:12:37.475Z,56.0
2018-01-02T22:29:23.966Z,55.2
2018-01-02T22:46:11.125Z,54.8
2018-01-02T23:02:58.460Z,54.8
2018-01-02T23:19:45.118Z,54.4
2018-01-02T23:36:31.941Z,54.4
2018-01-02T23:53:18.948Z,54.4
